Time;durP1;ratioP1;P1;durP2;ratioP2;P2;SDS_P1;SDS_P2;PMS_P1;PMS_P2;Temp;Humidity;BMP_temperature;BMP_pressure;BME280_temperature;BME280_humidity;BME280_pressure;Samples;Min_cycle;Max_cycle;Signal;HPM_P1;HPM_P2
2023/03/30 00:00:00;;;;;;;16.52;10.88;;;11.40;99.90;;;;;;5002952;28;20391;-74
2023/03/30 00:02:30;;;;;;;15.48;10.70;;;11.40;99.90;;;;;;5008613;28;20077;-74
2023/03/30 00:05:01;;;;;;;19.02;11.20;;;11.40;99.90;;;;;;4992054;28;20497;-74
2023/03/30 00:07:31;;;;;;;18.10;12.63;;;11.40;99.90;;;;;;4994277;28;20058;-75
2023/03/30 00:09:57;;;;;;;17.77;11.48;;;11.40;99.90;;;;;;4995183;28;20069;-74
2023/03/30 00:12:23;;;;;;;15.68;10.65;;;11.40;99.90;;;;;;5000601;28;21082;-75
2023/03/30 00:14:49;;;;;;;16.92;10.18;;;11.30;99.90;;;;;;4992228;28;20038;-74
2023/03/30 00:17:15;;;;;;;16.50;10.82;;;11.30;99.90;;;;;;5000744;28;20034;-75
2023/03/30 00:19:40;;;;;;;18.13;10.05;;;11.40;99.90;;;;;;4992090;28;20682;-75
2023/03/30 00:22:08;;;;;;;15.02;10.68;;;11.30;99.90;;;;;;5018957;28;20041;-74
2023/03/30 00:24:34;;;;;;;14.77;9.23;;;11.30;99.90;;;;;;4997085;28;20446;-74
2023/03/30 00:27:00;;;;;;;13.32;9.18;;;11.30;99.90;;;;;;4998925;28;20500;-75
2023/03/30 00:29:26;;;;;;;14.40;9.70;;;11.40;99.90;;;;;;4998642;28;20042;-75
2023/03/30 00:31:52;;;;;;;14.73;9.25;;;11.30;99.90;;;;;;4997893;28;20034;-74
2023/03/30 00:34:18;;;;;;;17.50;9.20;;;11.40;99.90;;;;;;4993810;28;20066;-74
2023/03/30 00:36:45;;;;;;;15.20;9.40;;;11.40;99.90;;;;;;5002137;28;20529;-74
2023/03/30 00:39:12;;;;;;;17.65;9.48;;;11.50;99.90;;;;;;4994985;28;20054;-74
2023/03/30 00:41:38;;;;;;;14.38;9.52;;;11.40;99.90;;;;;;4997151;28;21111;-74
2023/03/30 00:44:45;;;;;;;16.50;9.02;;;11.50;99.90;;;;;;4995379;28;20053;-74
2023/03/30 00:47:11;;;;;;;13.02;8.82;;;11.40;99.90;;;;;;4997787;28;20057;-74
2023/03/30 00:49:37;;;;;;;12.38;8.40;;;11.40;99.90;;;;;;4989915;28;20049;-75
2023/03/30 00:52:03;;;;;;;15.95;8.70;;;11.30;99.90;;;;;;5002895;28;20049;-74
2023/03/30 00:54:29;;;;;;;17.10;8.48;;;11.40;99.90;;;;;;5003231;28;20034;-74
2023/03/30 00:56:55;;;;;;;14.52;9.02;;;11.40;99.90;;;;;;4996625;28;20041;-74
2023/03/30 00:59:24;;;;;;;15.80;7.70;;;11.30;99.90;;;;;;5000376;28;20042;-74
2023/03/30 01:01:50;;;;;;;13.95;7.75;;;11.40;99.90;;;;;;5002257;28;20060;-74
2023/03/30 01:04:16;;;;;;;12.32;6.68;;;11.40;99.90;;;;;;4998948;28;20049;-75
2023/03/30 01:06:45;;;;;;;12.57;7.45;;;11.40;99.90;;;;;;5006506;28;20053;-75
2023/03/30 01:09:12;;;;;;;13.40;7.57;;;11.60;99.90;;;;;;5004889;28;20077;-74
2023/03/30 01:11:39;;;;;;;18.42;7.90;;;11.50;99.90;;;;;;4998893;28;20041;-74
2023/03/30 01:14:07;;;;;;;16.95;7.75;;;11.60;99.90;;;;;;4998780;28;20034;-74
2023/03/30 01:16:56;;;;;;;13.10;6.40;;;11.60;99.90;;;;;;4983698;28;20094;-74
2023/03/30 01:19:58;;;;;;;11.85;6.95;;;11.70;99.90;;;;;;4997259;28;20045;-74
2023/03/30 01:22:51;;;;;;;14.00;7.63;;;11.60;99.90;;;;;;5017046;28;20052;-74
2023/03/30 01:25:20;;;;;;;12.85;6.55;;;11.60;99.90;;;;;;5004453;28;20061;-74
2023/03/30 01:28:20;;;;;;;12.75;6.38;;;11.60;99.90;;;;;;5002260;28;20108;-74
2023/03/30 01:31:04;;;;;;;12.98;6.25;;;11.60;99.90;;;;;;5001786;28;20037;-73
2023/03/30 01:33:56;;;;;;;13.18;5.22;;;11.70;99.90;;;;;;5000485;28;20037;-73
2023/03/30 01:36:48;;;;;;;8.73;5.03;;;11.80;99.90;;;;;;5001450;28;20092;-74
2023/03/30 01:39:20;;;;;;;9.93;5.43;;;11.80;99.90;;;;;;4992248;28;20050;-75
2023/03/30 01:41:48;;;;;;;11.85;5.40;;;11.90;99.90;;;;;;4999364;28;20112;-74
2023/03/30 01:44:58;;;;;;;10.57;6.30;;;11.90;99.90;;;;;;5002340;28;20049;-74
2023/03/30 01:47:50;;;;;;;11.65;6.53;;;11.80;99.90;;;;;;4981840;28;20068;-74
2023/03/30 01:50:42;;;;;;;17.05;7.57;;;11.80;99.90;;;;;;5000214;28;20061;-74
2023/03/30 01:53:26;;;;;;;13.52;6.10;;;11.80;99.90;;;;;;5000218;28;20057;-74
2023/03/30 01:56:00;;;;;;;10.63;5.03;;;11.70;99.90;;;;;;5000995;28;20072;-74
2023/03/30 01:58:32;;;;;;;15.77;6.35;;;11.70;99.90;;;;;;5000886;28;20038;-75
2023/03/30 02:01:00;;;;;;;11.38;5.30;;;11.70;99.90;;;;;;4997219;28;20038;-74
2023/03/30 02:03:31;;;;;;;12.43;5.80;;;11.70;99.90;;;;;;4996874;28;20045;-73
2023/03/30 02:06:16;;;;;;;12.93;5.82;;;11.60;99.90;;;;;;5000190;28;20069;-74
2023/03/30 02:08:43;;;;;;;12.52;5.85;;;11.70;99.90;;;;;;5004241;28;20041;-74
2023/03/30 02:11:10;;;;;;;10.27;5.07;;;11.70;99.90;;;;;;5005465;28;20050;-75
2023/03/30 02:13:37;;;;;;;10.88;5.20;;;11.60;99.90;;;;;;5000828;28;20493;-74
2023/03/30 02:16:11;;;;;;;16.23;4.72;;;11.60;99.90;;;;;;4997750;28;20133;-75
2023/03/30 02:18:37;;;;;;;15.60;5.72;;;11.60;99.90;;;;;;5004945;28;20489;-74
2023/03/30 02:21:04;;;;;;;14.52;4.97;;;11.50;99.90;;;;;;4982126;28;20532;-75
2023/03/30 02:23:34;;;;;;;11.43;4.85;;;11.50;99.90;;;;;;5000433;28;20046;-74
2023/03/30 02:26:00;;;;;;;11.27;3.70;;;11.50;99.90;;;;;;5003251;28;20056;-75
2023/03/30 02:28:26;;;;;;;13.68;4.95;;;11.50;99.90;;;;;;4999932;28;20075;-75
2023/03/30 02:30:52;;;;;;;12.10;4.65;;;11.40;99.90;;;;;;4990927;28;20042;-74
2023/03/30 02:33:44;;;;;;;17.55;4.93;;;11.50;99.90;;;;;;4998790;28;20791;-74
2023/03/30 02:36:26;;;;;;;7.10;3.72;;;11.50;99.90;;;;;;4998704;28;20416;-74
2023/03/30 02:39:04;;;;;;;11.68;4.50;;;11.50;99.90;;;;;;5004978;28;20429;-74
2023/03/30 02:41:55;;;;;;;17.13;5.15;;;11.60;99.90;;;;;;4999656;28;20046;-74
2023/03/30 02:44:51;;;;;;;11.43;4.80;;;11.60;99.90;;;;;;4999253;28;20502;-74
2023/03/30 02:47:54;;;;;;;13.00;4.85;;;11.60;99.90;;;;;;4979398;28;20129;-74
2023/03/30 02:50:29;;;;;;;11.10;5.65;;;11.70;99.90;;;;;;4998213;28;20100;-74
2023/03/30 02:53:09;;;;;;;13.73;5.10;;;11.60;99.90;;;;;;5003369;28;20108;-75
2023/03/30 02:56:05;;;;;;;11.25;4.82;;;11.60;99.90;;;;;;5000017;28;20092;-75
2023/03/30 02:58:43;;;;;;;11.00;4.53;;;11.50;99.90;;;;;;5000958;28;20502;-75
2023/03/30 03:01:16;;;;;;;13.23;5.10;;;11.40;99.90;;;;;;4983535;28;20052;-75
2023/03/30 03:03:48;;;;;;;16.00;4.75;;;11.40;99.90;;;;;;4997164;28;20088;-75
2023/03/30 03:06:14;;;;;;;16.45;5.80;;;11.30;99.90;;;;;;4993057;28;20827;-75
2023/03/30 03:08:43;;;;;;;15.48;5.63;;;11.30;99.90;;;;;;4999586;28;20054;-74
2023/03/30 03:11:09;;;;;;;13.00;5.05;;;11.30;99.90;;;;;;5004882;28;20534;-74
2023/03/30 03:13:36;;;;;;;13.88;4.60;;;11.30;99.90;;;;;;5004711;28;20125;-74
2023/03/30 03:16:09;;;;;;;15.27;5.57;;;11.30;99.90;;;;;;4992528;28;20052;-75
2023/03/30 03:18:38;;;;;;;14.20;5.18;;;11.30;99.90;;;;;;5000701;28;20695;-75
2023/03/30 03:21:05;;;;;;;15.70;5.55;;;11.40;99.90;;;;;;4993612;28;20046;-74
2023/03/30 03:23:31;;;;;;;13.88;5.20;;;11.30;99.90;;;;;;5005189;28;20037;-74
2023/03/30 03:25:56;;;;;;;13.20;6.13;;;11.30;99.90;;;;;;4999322;28;20042;-74
2023/03/30 03:28:22;;;;;;;13.98;5.90;;;11.30;99.90;;;;;;4998913;28;20164;-74
2023/03/30 03:30:48;;;;;;;15.73;6.57;;;11.20;99.90;;;;;;4996953;28;20073;-74
2023/03/30 03:33:14;;;;;;;15.98;5.97;;;11.10;99.90;;;;;;4997367;28;20050;-74
2023/03/30 03:35:44;;;;;;;16.67;5.95;;;11.10;99.90;;;;;;4992158;28;20123;-75
2023/03/30 03:38:13;;;;;;;13.90;5.30;;;11.20;99.90;;;;;;4999640;28;20054;-74
2023/03/30 03:40:39;;;;;;;19.95;5.47;;;11.10;99.90;;;;;;4995800;28;20108;-74
2023/03/30 03:43:05;;;;;;;21.88;6.35;;;11.10;99.90;;;;;;4995644;28;20041;-74
2023/03/30 03:45:32;;;;;;;16.00;5.05;;;11.00;99.90;;;;;;4981817;28;20041;-73
2023/03/30 03:47:58;;;;;;;13.55;5.32;;;11.00;99.90;;;;;;4998133;28;20147;-74
2023/03/30 03:50:24;;;;;;;15.88;5.15;;;11.00;99.90;;;;;;4981768;28;20581;-74
2023/03/30 03:52:49;;;;;;;16.40;5.18;;;11.00;99.90;;;;;;4987478;28;20498;-74
2023/03/30 03:55:15;;;;;;;14.95;5.60;;;11.00;99.90;;;;;;4998786;28;20053;-74
2023/03/30 03:57:43;;;;;;;14.18;5.28;;;10.90;99.90;;;;;;5004162;28;20482;-74
2023/03/30 04:00:15;;;;;;;16.27;5.65;;;10.90;99.90;;;;;;4996296;28;20080;-74
2023/03/30 04:02:42;;;;;;;17.80;5.82;;;10.90;99.90;;;;;;4997357;28;20518;-75
2023/03/30 04:05:08;;;;;;;19.35;5.85;;;11.00;99.90;;;;;;4997511;28;20034;-74
2023/03/30 04:07:35;;;;;;;14.20;4.80;;;10.90;99.90;;;;;;4998309;28;20056;-74
2023/03/30 04:10:02;;;;;;;18.92;5.85;;;11.00;99.90;;;;;;4983339;28;20042;-74
2023/03/30 04:12:29;;;;;;;12.43;4.05;;;11.00;99.90;;;;;;4994632;28;20596;-74
2023/03/30 04:14:54;;;;;;;11.15;4.05;;;11.00;99.90;;;;;;5000058;28;20489;-74
2023/03/30 04:17:22;;;;;;;14.02;4.82;;;11.10;99.90;;;;;;4995118;28;20053;-74
2023/03/30 04:19:55;;;;;;;14.68;4.47;;;11.10;99.90;;;;;;4998325;28;20041;-74
2023/03/30 04:22:24;;;;;;;20.33;5.10;;;11.20;99.90;;;;;;4996871;28;20100;-73
2023/03/30 04:24:50;;;;;;;13.27;4.25;;;11.20;99.90;;;;;;4999150;28;20064;-74
2023/03/30 04:27:16;;;;;;;15.60;4.00;;;11.30;99.90;;;;;;5002847;28;20038;-74
2023/03/30 04:29:43;;;;;;;15.13;4.18;;;11.30;99.90;;;;;;5002475;28;20033;-74
2023/03/30 04:32:11;;;;;;;20.98;5.00;;;11.40;99.90;;;;;;4999145;28;20054;-74
2023/03/30 04:34:41;;;;;;;16.40;4.10;;;11.40;99.90;;;;;;4999985;28;20034;-74
2023/03/30 04:37:08;;;;;;;19.98;4.47;;;11.40;99.90;;;;;;5004565;28;20046;-74
2023/03/30 04:39:34;;;;;;;14.52;3.63;;;11.50;99.90;;;;;;5009778;28;20212;-74
2023/03/30 04:42:03;;;;;;;14.88;3.63;;;11.40;99.90;;;;;;5005449;28;22648;-74
2023/03/30 04:44:29;;;;;;;18.92;4.78;;;11.40;99.90;;;;;;4992706;28;20057;-74
2023/03/30 04:46:55;;;;;;;12.18;3.25;;;11.50;99.90;;;;;;5010329;28;20050;-74
2023/03/30 04:49:24;;;;;;;16.73;4.47;;;11.40;99.90;;;;;;4990600;28;20077;-74
2023/03/30 04:51:50;;;;;;;12.98;3.80;;;11.50;99.90;;;;;;4994573;28;20069;-74
2023/03/30 04:54:16;;;;;;;13.45;3.80;;;11.50;99.90;;;;;;4998740;28;20052;-74
2023/03/30 04:56:41;;;;;;;19.20;4.18;;;11.40;99.90;;;;;;5001140;28;20442;-74
2023/03/30 04:59:07;;;;;;;17.73;3.58;;;11.50;99.90;;;;;;4999883;28;20034;-75
2023/03/30 05:01:32;;;;;;;16.83;3.67;;;11.50;99.90;;;;;;4995502;28;20058;-74
2023/03/30 05:03:58;;;;;;;12.50;3.90;;;11.50;99.90;;;;;;4995304;28;20089;-74
2023/03/30 05:06:24;;;;;;;17.05;4.28;;;11.50;99.90;;;;;;4999923;28;20164;-74
2023/03/30 05:08:50;;;;;;;16.70;4.88;;;11.50;99.90;;;;;;5003128;28;20046;-75
2023/03/30 05:11:15;;;;;;;17.10;4.80;;;11.50;99.90;;;;;;4977066;28;20050;-75
2023/03/30 05:13:41;;;;;;;15.13;4.15;;;11.40;99.90;;;;;;5007696;28;20049;-76
2023/03/30 05:16:07;;;;;;;18.25;3.85;;;11.50;99.90;;;;;;5005258;28;20041;-74
2023/03/30 05:18:33;;;;;;;13.13;5.38;;;11.50;99.90;;;;;;4994007;28;20045;-75
2023/03/30 05:20:58;;;;;;;15.90;4.15;;;11.40;99.90;;;;;;5005192;28;20474;-75
2023/03/30 05:23:25;;;;;;;16.50;4.65;;;11.40;99.90;;;;;;5006744;28;20223;-74
2023/03/30 05:25:50;;;;;;;16.77;4.05;;;11.30;99.90;;;;;;5011963;28;20050;-76
2023/03/30 05:28:16;;;;;;;13.52;4.00;;;11.40;99.90;;;;;;5007410;28;20088;-76
2023/03/30 05:30:43;;;;;;;12.85;4.10;;;11.30;99.90;;;;;;4982938;28;20512;-76
2023/03/30 05:33:08;;;;;;;21.92;4.07;;;11.40;99.90;;;;;;5007661;28;20631;-75
2023/03/30 05:35:35;;;;;;;19.25;4.18;;;11.50;99.90;;;;;;4999965;28;20073;-76
2023/03/30 05:38:06;;;;;;;14.18;3.80;;;11.30;99.90;;;;;;5000600;28;20030;-76
2023/03/30 05:40:31;;;;;;;16.58;3.65;;;11.40;99.90;;;;;;4996158;28;20042;-75
2023/03/30 05:42:57;;;;;;;10.93;3.17;;;11.40;99.90;;;;;;5008163;28;20060;-75
2023/03/30 05:45:22;;;;;;;15.10;4.25;;;11.40;99.90;;;;;;5006692;28;20038;-76
2023/03/30 05:47:50;;;;;;;14.75;3.60;;;11.40;99.90;;;;;;5007309;28;20512;-77
2023/03/30 05:50:16;;;;;;;14.70;3.20;;;11.50;99.90;;;;;;5001878;28;20453;-75
2023/03/30 05:52:41;;;;;;;15.30;3.65;;;11.50;99.90;;;;;;5017031;28;20034;-75
2023/03/30 05:55:07;;;;;;;16.63;3.85;;;11.50;99.90;;;;;;5005453;28;20058;-78
2023/03/30 05:57:33;;;;;;;18.58;3.95;;;11.50;99.90;;;;;;4993495;28;20038;-78
2023/03/30 05:59:59;;;;;;;13.32;3.40;;;11.50;99.90;;;;;;5003073;28;20037;-79
2023/03/30 06:02:26;;;;;;;12.93;3.53;;;11.50;99.90;;;;;;5003014;28;20172;-82
2023/03/30 06:04:55;;;;;;;12.13;3.38;;;11.50;99.90;;;;;;5002164;28;20544;-79
2023/03/30 06:07:20;;;;;;;13.38;3.25;;;11.50;99.90;;;;;;4985299;28;20529;-79
2023/03/30 06:09:46;;;;;;;19.98;3.67;;;11.60;99.90;;;;;;5000152;28;20038;-76
2023/03/30 06:12:12;;;;;;;20.40;4.30;;;11.60;99.90;;;;;;5001863;28;20168;-79
2023/03/30 06:14:37;;;;;;;12.70;3.38;;;11.60;99.90;;;;;;5007005;28;20045;-79
2023/03/30 06:17:03;;;;;;;19.95;4.22;;;11.60;99.90;;;;;;4979170;28;20038;-78
2023/03/30 06:19:29;;;;;;;15.32;4.03;;;11.50;99.90;;;;;;4995255;28;20057;-78
2023/03/30 06:21:54;;;;;;;19.20;4.15;;;11.50;99.90;;;;;;5006031;28;20095;-78
2023/03/30 06:24:20;;;;;;;16.42;4.55;;;11.60;99.90;;;;;;5005974;28;20046;-77
2023/03/30 06:26:47;;;;;;;19.48;4.30;;;11.50;99.90;;;;;;5008150;28;20050;-80
2023/03/30 06:29:13;;;;;;;20.08;4.45;;;11.50;99.90;;;;;;5005755;28;20046;-80
2023/03/30 06:31:39;;;;;;;19.15;3.88;;;11.60;99.90;;;;;;4991587;28;20115;-78
2023/03/30 06:34:05;;;;;;;12.30;3.33;;;11.50;99.90;;;;;;4994302;28;21297;-81
2023/03/30 06:36:31;;;;;;;17.35;4.25;;;11.50;99.90;;;;;;4999894;28;20046;-76
2023/03/30 06:38:56;;;;;;;13.38;4.47;;;11.50;99.90;;;;;;5000684;28;20052;-77
2023/03/30 06:41:22;;;;;;;25.30;5.05;;;11.50;99.90;;;;;;4999973;28;20049;-75
2023/03/30 06:43:47;;;;;;;20.10;4.40;;;11.50;99.90;;;;;;4992345;28;20050;-75
2023/03/30 06:46:14;;;;;;;24.65;5.03;;;11.50;99.90;;;;;;5002287;28;20065;-76
2023/03/30 06:48:40;;;;;;;20.92;4.72;;;11.50;99.90;;;;;;5005460;28;20049;-76
2023/03/30 06:51:07;;;;;;;18.38;5.40;;;11.40;99.90;;;;;;5006535;28;20485;-77
2023/03/30 06:53:33;;;;;;;22.30;6.00;;;11.50;99.90;;;;;;5004767;28;20337;-76
2023/03/30 06:55:58;;;;;;;23.58;4.65;;;11.40;99.90;;;;;;5009944;28;20230;-77
2023/03/30 06:58:26;;;;;;;25.92;6.40;;;11.50;99.90;;;;;;5008743;28;20042;-77
2023/03/30 07:00:55;;;;;;;22.73;5.10;;;11.50;99.90;;;;;;5008683;28;20045;-77
2023/03/30 07:03:25;;;;;;;24.13;5.75;;;11.50;99.90;;;;;;5001905;28;20294;-78
2023/03/30 07:05:54;;;;;;;22.75;6.15;;;11.50;99.90;;;;;;4999810;28;20077;-78
2023/03/30 07:08:20;;;;;;;19.58;4.05;;;11.40;99.90;;;;;;5007781;28;20347;-78
2023/03/30 07:10:47;;;;;;;27.45;6.82;;;11.40;99.90;;;;;;5011560;28;20376;-78
2023/03/30 07:13:16;;;;;;;28.52;4.95;;;11.40;99.90;;;;;;4996447;28;20054;-79
2023/03/30 07:15:42;;;;;;;18.58;4.30;;;11.40;99.90;;;;;;5005417;28;20088;-79
2023/03/30 07:18:08;;;;;;;16.55;3.70;;;11.40;99.90;;;;;;4999309;28;20041;-79
2023/03/30 07:20:34;;;;;;;28.88;6.00;;;11.40;99.90;;;;;;4989769;28;20069;-79
2023/03/30 07:23:01;;;;;;;26.63;5.72;;;11.40;99.90;;;;;;5004693;28;20042;-79
2023/03/30 07:25:27;;;;;;;30.40;5.85;;;11.40;99.90;;;;;;4997564;28;20236;-79
2023/03/30 07:27:52;;;;;;;20.33;4.68;;;11.40;99.90;;;;;;5006249;28;20663;-79
2023/03/30 07:30:18;;;;;;;26.00;5.00;;;11.40;99.90;;;;;;5008991;28;20073;-79
2023/03/30 07:32:44;;;;;;;15.18;3.03;;;11.40;99.90;;;;;;5007969;28;20049;-79
2023/03/30 07:35:10;;;;;;;26.00;3.65;;;11.40;99.90;;;;;;5009575;28;20137;-79
2023/03/30 07:37:38;;;;;;;23.48;4.63;;;11.40;99.90;;;;;;5004784;28;20125;-79
2023/03/30 07:40:09;;;;;;;19.25;5.32;;;11.40;99.90;;;;;;5001663;28;20049;-79
2023/03/30 07:42:35;;;;;;;23.85;4.85;;;11.40;99.90;;;;;;5008564;28;20058;-79
2023/03/30 07:45:02;;;;;;;26.55;5.22;;;11.40;99.90;;;;;;5005175;28;20052;-79
2023/03/30 07:47:27;;;;;;;25.90;5.85;;;11.40;99.90;;;;;;5004583;28;20053;-79
2023/03/30 07:49:53;;;;;;;22.40;4.55;;;11.40;99.90;;;;;;5007797;28;20042;-78
2023/03/30 07:52:18;;;;;;;25.23;5.72;;;11.40;99.90;;;;;;5005083;28;20046;-79
2023/03/30 07:54:45;;;;;;;24.25;6.13;;;11.40;99.90;;;;;;5003560;28;20038;-79
2023/03/30 07:57:11;;;;;;;31.13;4.47;;;11.40;99.90;;;;;;5010071;28;20490;-79
2023/03/30 07:59:37;;;;;;;23.23;5.22;;;11.30;99.90;;;;;;5002995;28;20091;-79
2023/03/30 08:02:05;;;;;;;33.65;6.28;;;11.40;99.90;;;;;;5009059;28;20041;-79
2023/03/30 08:04:31;;;;;;;32.55;6.03;;;11.50;99.90;;;;;;4989872;28;20054;-79
2023/03/30 08:07:00;;;;;;;35.95;7.45;;;11.50;99.90;;;;;;4993988;28;20494;-79
2023/03/30 08:09:26;;;;;;;29.08;5.07;;;11.50;99.90;;;;;;4999692;28;20050;-79
2023/03/30 08:11:52;;;;;;;33.28;6.28;;;11.60;99.90;;;;;;5004315;28;20500;-79
2023/03/30 08:14:17;;;;;;;27.17;5.45;;;11.60;99.90;;;;;;5000610;28;20050;-79
2023/03/30 08:16:43;;;;;;;27.92;5.30;;;11.70;99.90;;;;;;5006605;28;20049;-79
2023/03/30 08:19:09;;;;;;;28.35;6.25;;;11.70;99.90;;;;;;5005665;28;20034;-79
2023/03/30 08:21:34;;;;;;;28.35;5.68;;;11.60;99.90;;;;;;5003822;28;20446;-78
2023/03/30 08:24:00;;;;;;;33.53;6.22;;;11.50;99.90;;;;;;5010087;28;20053;-79
2023/03/30 08:26:29;;;;;;;30.23;4.93;;;11.40;99.90;;;;;;5010395;28;20081;-78
2023/03/30 08:28:55;;;;;;;29.27;5.38;;;11.30;99.90;;;;;;5005414;28;20041;-78
2023/03/30 08:31:21;;;;;;;25.15;4.75;;;11.30;99.90;;;;;;4999957;28;20050;-78
2023/03/30 08:33:47;;;;;;;24.45;5.82;;;11.50;99.90;;;;;;4998764;28;20109;-78
2023/03/30 08:36:13;;;;;;;28.42;5.57;;;11.50;99.90;;;;;;5001071;28;20045;-82
2023/03/30 08:38:40;;;;;;;26.50;5.13;;;11.60;99.90;;;;;;4999562;28;20042;-82
2023/03/30 08:41:40;;;;;;;25.85;4.75;;;11.70;99.90;;;;;;4994091;28;20045;-82
2023/03/30 08:44:46;;;;;;;26.05;5.55;;;11.80;99.90;;;;;;5003473;28;20209;-83
2023/03/30 08:47:19;;;;;;;28.33;5.28;;;11.90;99.90;;;;;;5006593;28;20089;-83
2023/03/30 08:50:28;;;;;;;19.50;3.85;;;12.00;99.90;;;;;;5002105;28;20060;-82
2023/03/30 08:52:53;;;;;;;20.38;4.45;;;12.10;99.90;;;;;;5005600;28;20045;-83
2023/03/30 08:55:33;;;;;;;20.70;4.15;;;12.10;99.90;;;;;;5001982;28;20041;-82
2023/03/30 08:58:31;;;;;;;28.15;4.45;;;12.20;99.90;;;;;;4997663;28;20042;-82
2023/03/30 09:01:33;;;;;;;23.42;4.63;;;12.40;99.90;;;;;;4995357;28;20080;-81
2023/03/30 09:04:11;;;;;;;22.50;5.18;;;12.50;99.90;;;;;;4998060;28;20563;-84
2023/03/30 09:06:50;;;;;;;20.35;5.10;;;12.60;99.90;;;;;;5001675;28;20053;-82
2023/03/30 09:09:20;;;;;;;18.95;3.88;;;12.50;99.90;;;;;;5000914;28;20433;-82
2023/03/30 09:11:52;;;;;;;19.80;3.58;;;12.50;99.90;;;;;;5005618;28;20034;-83
2023/03/30 09:14:54;;;;;;;19.98;3.85;;;12.60;99.90;;;;;;4998549;28;20304;-85
2023/03/30 09:17:30;;;;;;;17.02;3.60;;;12.60;99.90;;;;;;5002636;28;20058;-83
2023/03/30 09:20:21;;;;;;;21.10;5.95;;;12.50;99.90;;;;;;4994444;28;20042;-83
2023/03/30 09:22:48;;;;;;;24.58;4.35;;;12.50;99.90;;;;;;4986118;28;20097;-83
2023/03/30 09:25:16;;;;;;;27.73;4.45;;;12.50;99.90;;;;;;4992455;28;20042;-83
2023/03/30 09:27:49;;;;;;;24.77;5.00;;;12.40;99.90;;;;;;5010766;28;20081;-81
2023/03/30 09:30:24;;;;;;;18.73;3.42;;;12.40;99.90;;;;;;4993377;28;20054;-81
2023/03/30 09:33:09;;;;;;;20.58;4.57;;;12.30;99.90;;;;;;4993631;28;20046;-82
2023/03/30 09:35:40;;;;;;;18.55;3.75;;;12.30;99.90;;;;;;5007002;28;20440;-82
2023/03/30 09:38:11;;;;;;;17.65;4.10;;;12.20;99.90;;;;;;5000211;28;20145;-82
2023/03/30 09:40:59;;;;;;;18.65;4.00;;;12.30;99.90;;;;;;5002076;28;20048;-82
2023/03/30 09:43:46;;;;;;;19.63;4.88;;;12.30;99.90;;;;;;5004108;28;20066;-83
2023/03/30 09:46:15;;;;;;;22.80;5.20;;;12.30;99.90;;;;;;5003958;28;20063;-82
2023/03/30 09:48:46;;;;;;;25.52;4.53;;;12.40;99.90;;;;;;5001470;28;20086;-83
2023/03/30 09:51:32;;;;;;;19.58;4.65;;;12.40;99.90;;;;;;5003797;28;20046;-83
2023/03/30 09:54:00;;;;;;;24.80;3.85;;;12.40;99.90;;;;;;5003553;28;20045;-85
2023/03/30 09:56:27;;;;;;;21.45;4.18;;;12.40;99.90;;;;;;5003733;28;20049;-84
2023/03/30 09:58:54;;;;;;;24.58;4.20;;;12.40;99.90;;;;;;5003767;28;20104;-81
2023/03/30 10:01:24;;;;;;;19.15;4.10;;;12.50;99.90;;;;;;4996641;28;20537;-82
2023/03/30 10:04:11;;;;;;;28.13;4.93;;;12.50;99.90;;;;;;5001725;28;20054;-82
2023/03/30 10:06:48;;;;;;;23.05;4.88;;;12.60;99.90;;;;;;4998785;28;20045;-83
2023/03/30 10:09:16;;;;;;;13.98;3.08;;;12.60;99.90;;;;;;4985887;28;20042;-82
2023/03/30 10:11:50;;;;;;;21.17;4.50;;;12.60;99.90;;;;;;4995531;28;20038;-83
2023/03/30 10:14:28;;;;;;;19.30;3.85;;;12.70;99.90;;;;;;5002961;28;20049;-83
2023/03/30 10:16:54;;;;;;;15.90;4.30;;;12.70;99.90;;;;;;5003987;28;20054;-83
2023/03/30 10:19:24;;;;;;;19.90;4.95;;;12.70;99.90;;;;;;4996458;28;20864;-83
2023/03/30 10:21:58;;;;;;;31.88;6.00;;;12.70;99.90;;;;;;4996038;28;20793;-82
2023/03/30 10:24:27;;;;;;;20.35;5.22;;;12.70;99.90;;;;;;4989633;28;20117;-83
2023/03/30 10:27:24;;;;;;;26.67;6.07;;;12.70;99.90;;;;;;4983296;28;20353;-84
2023/03/30 10:29:51;;;;;;;27.33;5.22;;;12.70;99.90;;;;;;5010022;28;20057;-83
2023/03/30 10:32:20;;;;;;;20.63;4.30;;;12.80;99.90;;;;;;4983419;28;20123;-83
2023/03/30 10:34:52;;;;;;;23.60;4.05;;;12.80;99.90;;;;;;5007630;28;20092;-83
2023/03/30 10:37:34;;;;;;;27.52;6.68;;;12.90;99.90;;;;;;5009060;28;20524;-82
2023/03/30 10:40:04;;;;;;;22.70;5.30;;;12.90;99.90;;;;;;5005386;28;20505;-82
2023/03/30 10:42:31;;;;;;;19.73;5.00;;;12.90;99.90;;;;;;5011028;28;20041;-83
2023/03/30 10:45:03;;;;;;;31.73;5.13;;;13.00;99.90;;;;;;5005836;28;20045;-85
2023/03/30 10:47:41;;;;;;;21.17;4.93;;;13.10;99.90;;;;;;5004298;28;20128;-84
2023/03/30 10:50:35;;;;;;;27.63;4.63;;;13.30;99.90;;;;;;5005730;28;20053;-83
2023/03/30 10:53:25;;;;;;;22.90;4.65;;;13.40;99.90;;;;;;5007566;28;20096;-82
2023/03/30 10:56:05;;;;;;;27.40;4.38;;;13.40;99.90;;;;;;4999221;28;20052;-81
2023/03/30 10:58:44;;;;;;;25.73;4.80;;;13.40;99.90;;;;;;5001939;28;20090;-82
2023/03/30 11:01:47;;;;;;;27.88;5.03;;;13.50;99.90;;;;;;5007060;28;20042;-82
2023/03/30 11:04:34;;;;;;;20.35;4.80;;;13.50;99.90;;;;;;4998243;28;20065;-83
2023/03/30 11:07:00;;;;;;;26.02;4.40;;;13.60;99.90;;;;;;5002686;28;20054;-82
2023/03/30 11:09:33;;;;;;;33.03;5.65;;;13.50;99.90;;;;;;5006662;28;20042;-81
2023/03/30 11:12:15;;;;;;;21.48;4.60;;;13.60;99.90;;;;;;5007843;28;20041;-81
2023/03/30 11:14:44;;;;;;;28.58;4.80;;;13.60;99.90;;;;;;5006014;28;20053;-81
2023/03/30 11:17:18;;;;;;;26.10;5.38;;;13.70;99.90;;;;;;5006602;28;20540;-82
2023/03/30 11:19:50;;;;;;;20.33;5.55;;;13.80;99.90;;;;;;5006906;28;20042;-83
2023/03/30 11:22:25;;;;;;;23.83;4.93;;;13.70;99.90;;;;;;5002795;28;20049;-83
2023/03/30 11:24:55;;;;;;;22.27;4.88;;;13.70;99.90;;;;;;4998615;28;20433;-83
2023/03/30 11:27:35;;;;;;;23.02;5.20;;;13.90;99.90;;;;;;5002877;28;20045;-82
2023/03/30 11:30:19;;;;;;;27.98;5.60;;;14.00;99.90;;;;;;5007286;28;20053;-81
2023/03/30 11:33:22;;;;;;;29.98;6.00;;;14.20;99.90;;;;;;5012038;28;20034;-81
2023/03/30 11:35:54;;;;;;;24.95;4.95;;;14.20;99.90;;;;;;5001455;28;20352;-81
2023/03/30 11:38:47;;;;;;;18.40;3.92;;;14.10;99.90;;;;;;5003660;28;20597;-82
2023/03/30 11:41:35;;;;;;;23.42;4.55;;;14.00;99.90;;;;;;4990516;28;20038;-75
2023/03/30 11:44:01;;;;;;;26.60;4.75;;;14.00;99.90;;;;;;5002586;28;20542;-81
2023/03/30 11:46:39;;;;;;;25.80;5.57;;;14.00;99.90;;;;;;5005022;28;20052;-80
2023/03/30 11:49:11;;;;;;;22.85;4.82;;;14.20;99.90;;;;;;5016258;28;20064;-81
2023/03/30 11:51:59;;;;;;;23.10;3.97;;;14.20;99.90;;;;;;5012848;28;20053;-83
2023/03/30 11:54:41;;;;;;;20.13;4.82;;;14.20;99.90;;;;;;4997924;28;20494;-83
2023/03/30 11:57:54;;;;;;;26.42;4.78;;;14.10;99.90;;;;;;5001652;28;20441;-75
2023/03/30 12:00:56;;;;;;;27.33;5.07;;;14.10;99.90;;;;;;4997654;28;20509;-82
2023/03/30 12:03:33;;;;;;;25.38;4.97;;;14.10;99.90;;;;;;5006251;28;20054;-83
2023/03/30 12:06:37;;;;;;;19.88;4.72;;;14.30;99.90;;;;;;4991211;28;20058;-82
2023/03/30 12:09:41;;;;;;;29.52;7.05;;;14.50;99.90;;;;;;5000415;28;20054;-83
2023/03/30 12:12:16;;;;;;;31.33;6.30;;;14.70;99.90;;;;;;5035730;28;20049;-83
2023/03/30 12:14:54;;;;;;;25.38;4.57;;;14.80;99.90;;;;;;5000934;28;21182;-83
2023/03/30 12:17:47;;;;;;;30.60;6.47;;;14.70;99.90;;;;;;5004003;28;20162;-83
2023/03/30 12:20:22;;;;;;;;;;;14.70;99.90;;;;;;4986564;28;20045;-82
2023/03/30 12:23:20;;;;;;;19.20;4.97;;;14.60;99.90;;;;;;4997624;28;19928;-82
2023/03/30 12:26:07;;;;;;;29.25;5.63;;;14.50;99.90;;;;;;4999910;28;20133;-82
2023/03/30 12:28:46;;;;;;;24.77;5.10;;;14.50;99.90;;;;;;4984973;28;20057;-82
2023/03/30 12:31:13;;;;;;;20.10;5.13;;;14.50;99.90;;;;;;4997654;28;20039;-82
2023/03/30 12:34:04;;;;;;;26.45;5.43;;;14.40;99.90;;;;;;5009731;28;20425;-82
2023/03/30 12:36:39;;;;;;;32.80;6.45;;;14.40;99.90;;;;;;5007990;28;20127;-83
2023/03/30 12:39:24;;;;;;;35.20;6.00;;;14.50;99.90;;;;;;5009834;28;20056;-82
2023/03/30 12:42:03;;;;;;;20.92;4.53;;;14.40;99.90;;;;;;4997627;28;20049;-82
2023/03/30 12:44:48;;;;;;;18.85;3.63;;;14.40;99.90;;;;;;5008690;28;20049;-82
2023/03/30 12:47:34;;;;;;;31.23;5.75;;;14.50;99.90;;;;;;4997970;28;20042;-82
2023/03/30 12:50:30;;;;;;;22.23;5.18;;;14.60;99.90;;;;;;5004761;28;20075;-83
2023/03/30 12:52:56;;;;;;;27.45;5.80;;;14.50;99.90;;;;;;5007546;28;20049;-82
2023/03/30 12:55:53;;;;;;;33.25;5.32;;;14.60;99.90;;;;;;5002663;28;20219;-82
2023/03/30 12:58:44;;;;;;;32.05;6.55;;;14.60;99.90;;;;;;5005545;28;20132;-83
2023/03/30 13:01:19;;;;;;;29.95;6.30;;;14.60;99.90;;;;;;5009617;28;20575;-81
2023/03/30 13:03:48;;;;;;;29.88;4.90;;;14.60;99.90;;;;;;5007363;28;21803;-82